sensor_id;sensor_type;location;lat;lon;timestamp;P1;durP1;ratioP1;P2;durP2;ratioP2
40555;SDS011;26250;45.422;11.100;2022-07-30T00:01:44;5.40;;;4.43;;
40555;SDS011;26250;45.422;11.100;2022-07-30T00:04:11;5.50;;;4.90;;
40555;SDS011;26250;45.422;11.100;2022-07-30T00:06:37;5.45;;;4.47;;
40555;SDS011;26250;45.422;11.100;2022-07-30T00:09:05;9.00;;;4.38;;
40555;SDS011;26250;45.422;11.100;2022-07-30T00:11:32;5.50;;;4.70;;
40555;SDS011;26250;45.422;11.100;2022-07-30T00:13:59;6.85;;;5.05;;
40555;SDS011;26250;45.422;11.100;2022-07-30T00:16:26;4.90;;;4.43;;
40555;SDS011;26250;45.422;11.100;2022-07-30T00:18:54;4.75;;;4.35;;
40555;SDS011;26250;45.422;11.100;2022-07-30T00:21:21;6.65;;;4.22;;
40555;SDS011;26250;45.422;11.100;2022-07-30T00:24:03;5.63;;;4.95;;
40555;SDS011;26250;45.422;11.100;2022-07-30T00:26:31;4.78;;;4.38;;
40555;SDS011;26250;45.422;11.100;2022-07-30T00:28:58;5.10;;;4.28;;
40555;SDS011;26250;45.422;11.100;2022-07-30T00:31:27;5.30;;;4.80;;
40555;SDS011;26250;45.422;11.100;2022-07-30T00:33:54;4.32;;;3.92;;
40555;SDS011;26250;45.422;11.100;2022-07-30T00:36:21;5.63;;;4.72;;
40555;SDS011;26250;45.422;11.100;2022-07-30T00:38:48;10.63;;;4.22;;
40555;SDS011;26250;45.422;11.100;2022-07-30T00:41:15;5.40;;;4.80;;
40555;SDS011;26250;45.422;11.100;2022-07-30T00:43:42;5.93;;;4.50;;
40555;SDS011;26250;45.422;11.100;2022-07-30T00:46:09;4.50;;;4.10;;
40555;SDS011;26250;45.422;11.100;2022-07-30T00:48:37;4.50;;;4.20;;
40555;SDS011;26250;45.422;11.100;2022-07-30T00:51:04;5.78;;;4.35;;
40555;SDS011;26250;45.422;11.100;2022-07-30T00:53:31;9.05;;;4.70;;
40555;SDS011;26250;45.422;11.100;2022-07-30T00:55:58;12.13;;;4.55;;
40555;SDS011;26250;45.422;11.100;2022-07-30T00:58:25;5.45;;;4.97;;
40555;SDS011;26250;45.422;11.100;2022-07-30T01:00:53;7.00;;;5.20;;
40555;SDS011;26250;45.422;11.100;2022-07-30T01:03:20;11.00;;;5.40;;
40555;SDS011;26250;45.422;11.100;2022-07-30T01:05:47;6.60;;;4.78;;
40555;SDS011;26250;45.422;11.100;2022-07-30T01:08:14;7.07;;;4.75;;
40555;SDS011;26250;45.422;11.100;2022-07-30T01:10:42;5.38;;;4.75;;
40555;SDS011;26250;45.422;11.100;2022-07-30T01:13:09;6.35;;;4.82;;
40555;SDS011;26250;45.422;11.100;2022-07-30T01:15:37;4.65;;;4.20;;
40555;SDS011;26250;45.422;11.100;2022-07-30T01:18:05;7.30;;;4.18;;
40555;SDS011;26250;45.422;11.100;2022-07-30T01:20:37;6.00;;;5.25;;
40555;SDS011;26250;45.422;11.100;2022-07-30T01:23:16;6.68;;;5.43;;
40555;SDS011;26250;45.422;11.100;2022-07-30T01:25:51;11.15;;;5.53;;
40555;SDS011;26250;45.422;11.100;2022-07-30T01:28:37;7.93;;;6.43;;
40555;SDS011;26250;45.422;11.100;2022-07-30T01:31:08;11.82;;;6.15;;
40555;SDS011;26250;45.422;11.100;2022-07-30T01:33:38;11.05;;;8.70;;
40555;SDS011;26250;45.422;11.100;2022-07-30T01:36:09;14.65;;;8.65;;
40555;SDS011;26250;45.422;11.100;2022-07-30T01:38:40;8.40;;;6.78;;
40555;SDS011;26250;45.422;11.100;2022-07-30T01:41:11;8.48;;;7.72;;
40555;SDS011;26250;45.422;11.100;2022-07-30T01:43:40;10.55;;;7.15;;
40555;SDS011;26250;45.422;11.100;2022-07-30T01:46:09;11.57;;;6.55;;
40555;SDS011;26250;45.422;11.100;2022-07-30T01:48:38;8.88;;;6.72;;
40555;SDS011;26250;45.422;11.100;2022-07-30T01:51:09;6.93;;;6.25;;
40555;SDS011;26250;45.422;11.100;2022-07-30T01:53:41;7.63;;;6.75;;
40555;SDS011;26250;45.422;11.100;2022-07-30T01:56:10;7.25;;;6.53;;
40555;SDS011;26250;45.422;11.100;2022-07-30T01:58:42;6.70;;;5.95;;
40555;SDS011;26250;45.422;11.100;2022-07-30T02:01:17;8.65;;;7.90;;
40555;SDS011;26250;45.422;11.100;2022-07-30T02:03:45;10.13;;;6.40;;
40555;SDS011;26250;45.422;11.100;2022-07-30T02:06:13;9.15;;;6.68;;
40555;SDS011;26250;45.422;11.100;2022-07-30T02:08:50;6.97;;;6.40;;
40555;SDS011;26250;45.422;11.100;2022-07-30T02:11:25;10.23;;;6.90;;
40555;SDS011;26250;45.422;11.100;2022-07-30T02:14:22;8.93;;;6.43;;
40555;SDS011;26250;45.422;11.100;2022-07-30T02:16:54;8.55;;;6.55;;
40555;SDS011;26250;45.422;11.100;2022-07-30T02:19:25;7.93;;;6.35;;
40555;SDS011;26250;45.422;11.100;2022-07-30T02:22:08;5.38;;;4.90;;
40555;SDS011;26250;45.422;11.100;2022-07-30T02:27:15;5.40;;;5.00;;
40555;SDS011;26250;45.422;11.100;2022-07-30T02:29:47;6.65;;;6.05;;
40555;SDS011;26250;45.422;11.100;2022-07-30T02:32:18;9.65;;;6.50;;
40555;SDS011;26250;45.422;11.100;2022-07-30T02:34:48;10.98;;;6.10;;
40555;SDS011;26250;45.422;11.100;2022-07-30T02:37:18;16.08;;;6.03;;
40555;SDS011;26250;45.422;11.100;2022-07-30T02:40:09;8.40;;;5.88;;
40555;SDS011;26250;45.422;11.100;2022-07-30T02:42:40;7.78;;;6.50;;
40555;SDS011;26250;45.422;11.100;2022-07-30T02:45:11;7.68;;;6.72;;
40555;SDS011;26250;45.422;11.100;2022-07-30T02:47:39;10.68;;;7.30;;
40555;SDS011;26250;45.422;11.100;2022-07-30T02:50:08;11.70;;;7.05;;
40555;SDS011;26250;45.422;11.100;2022-07-30T02:52:37;9.18;;;7.78;;
40555;SDS011;26250;45.422;11.100;2022-07-30T02:55:07;8.13;;;6.72;;
40555;SDS011;26250;45.422;11.100;2022-07-30T02:57:37;8.43;;;7.05;;
40555;SDS011;26250;45.422;11.100;2022-07-30T03:00:09;7.30;;;6.57;;
40555;SDS011;26250;45.422;11.100;2022-07-30T03:02:37;12.30;;;9.15;;
40555;SDS011;26250;45.422;11.100;2022-07-30T03:05:09;10.60;;;8.87;;
40555;SDS011;26250;45.422;11.100;2022-07-30T03:07:36;9.73;;;8.70;;
40555;SDS011;26250;45.422;11.100;2022-07-30T03:10:05;12.20;;;8.10;;
40555;SDS011;26250;45.422;11.100;2022-07-30T03:12:33;12.65;;;8.80;;
40555;SDS011;26250;45.422;11.100;2022-07-30T03:15:02;8.13;;;7.43;;
40555;SDS011;26250;45.422;11.100;2022-07-30T03:17:30;13.40;;;7.47;;
40555;SDS011;26250;45.422;11.100;2022-07-30T03:20:02;7.80;;;7.10;;
40555;SDS011;26250;45.422;11.100;2022-07-30T03:22:38;12.48;;;7.53;;
40555;SDS011;26250;45.422;11.100;2022-07-30T03:25:08;8.40;;;7.45;;
40555;SDS011;26250;45.422;11.100;2022-07-30T03:27:37;6.50;;;5.70;;
40555;SDS011;26250;45.422;11.100;2022-07-30T03:30:05;10.13;;;6.13;;
40555;SDS011;26250;45.422;11.100;2022-07-30T03:32:33;7.03;;;6.20;;
40555;SDS011;26250;45.422;11.100;2022-07-30T03:35:02;8.85;;;6.25;;
40555;SDS011;26250;45.422;11.100;2022-07-30T03:37:43;12.45;;;6.30;;
40555;SDS011;26250;45.422;11.100;2022-07-30T03:40:12;7.53;;;5.43;;
40555;SDS011;26250;45.422;11.100;2022-07-30T03:42:39;9.20;;;5.35;;
40555;SDS011;26250;45.422;11.100;2022-07-30T03:45:08;5.03;;;4.57;;
40555;SDS011;26250;45.422;11.100;2022-07-30T03:47:36;6.07;;;5.15;;
40555;SDS011;26250;45.422;11.100;2022-07-30T03:50:05;11.60;;;5.00;;
40555;SDS011;26250;45.422;11.100;2022-07-30T03:52:36;11.48;;;6.05;;
40555;SDS011;26250;45.422;11.100;2022-07-30T03:55:10;8.93;;;5.40;;
40555;SDS011;26250;45.422;11.100;2022-07-30T03:57:47;6.13;;;5.50;;
40555;SDS011;26250;45.422;11.100;2022-07-30T04:00:16;8.80;;;6.18;;
40555;SDS011;26250;45.422;11.100;2022-07-30T04:02:48;7.25;;;5.00;;
40555;SDS011;26250;45.422;11.100;2022-07-30T04:05:35;7.03;;;6.05;;
40555;SDS011;26250;45.422;11.100;2022-07-30T04:08:07;7.57;;;5.45;;
40555;SDS011;26250;45.422;11.100;2022-07-30T04:10:34;12.73;;;5.30;;
40555;SDS011;26250;45.422;11.100;2022-07-30T04:13:19;10.43;;;5.68;;
40555;SDS011;26250;45.422;11.100;2022-07-30T04:18:50;6.30;;;5.70;;
40555;SDS011;26250;45.422;11.100;2022-07-30T04:21:20;6.75;;;6.10;;
40555;SDS011;26250;45.422;11.100;2022-07-30T04:23:49;7.50;;;6.80;;
40555;SDS011;26250;45.422;11.100;2022-07-30T04:26:32;9.00;;;7.05;;
40555;SDS011;26250;45.422;11.100;2022-07-30T04:29:03;7.30;;;6.72;;
40555;SDS011;26250;45.422;11.100;2022-07-30T04:31:32;10.13;;;7.10;;
40555;SDS011;26250;45.422;11.100;2022-07-30T04:34:29;7.78;;;7.05;;
40555;SDS011;26250;45.422;11.100;2022-07-30T04:36:56;8.55;;;7.78;;
40555;SDS011;26250;45.422;11.100;2022-07-30T04:39:23;8.10;;;7.30;;
40555;SDS011;26250;45.422;11.100;2022-07-30T04:41:51;10.85;;;8.57;;
40555;SDS011;26250;45.422;11.100;2022-07-30T04:44:24;15.13;;;8.00;;
40555;SDS011;26250;45.422;11.100;2022-07-30T04:47:11;10.40;;;8.25;;
40555;SDS011;26250;45.422;11.100;2022-07-30T04:49:52;12.80;;;9.70;;
40555;SDS011;26250;45.422;11.100;2022-07-30T04:52:22;10.80;;;9.82;;
40555;SDS011;26250;45.422;11.100;2022-07-30T04:54:52;13.32;;;11.95;;
40555;SDS011;26250;45.422;11.100;2022-07-30T04:57:23;12.75;;;11.55;;
40555;SDS011;26250;45.422;11.100;2022-07-30T04:59:51;13.02;;;11.80;;
40555;SDS011;26250;45.422;11.100;2022-07-30T05:02:19;14.00;;;12.63;;
40555;SDS011;26250;45.422;11.100;2022-07-30T05:04:49;16.20;;;12.93;;
40555;SDS011;26250;45.422;11.100;2022-07-30T05:07:17;17.40;;;14.65;;
40555;SDS011;26250;45.422;11.100;2022-07-30T05:09:48;15.15;;;13.65;;
40555;SDS011;26250;45.422;11.100;2022-07-30T05:12:15;15.77;;;14.23;;
40555;SDS011;26250;45.422;11.100;2022-07-30T05:14:42;19.02;;;14.57;;
40555;SDS011;26250;45.422;11.100;2022-07-30T05:19:42;17.95;;;15.52;;
40555;SDS011;26250;45.422;11.100;2022-07-30T05:22:09;18.48;;;14.82;;
40555;SDS011;26250;45.422;11.100;2022-07-30T05:24:37;15.77;;;14.13;;
40555;SDS011;26250;45.422;11.100;2022-07-30T05:27:04;22.30;;;16.13;;
40555;SDS011;26250;45.422;11.100;2022-07-30T05:29:31;17.50;;;15.75;;
40555;SDS011;26250;45.422;11.100;2022-07-30T05:32:08;20.27;;;18.15;;
40555;SDS011;26250;45.422;11.100;2022-07-30T05:34:36;20.30;;;16.27;;
40555;SDS011;26250;45.422;11.100;2022-07-30T05:37:04;18.80;;;15.45;;
40555;SDS011;26250;45.422;11.100;2022-07-30T05:39:35;16.88;;;15.23;;
40555;SDS011;26250;45.422;11.100;2022-07-30T05:42:54;19.67;;;14.02;;
40555;SDS011;26250;45.422;11.100;2022-07-30T05:45:21;17.55;;;13.98;;
40555;SDS011;26250;45.422;11.100;2022-07-30T05:47:49;16.50;;;14.80;;
40555;SDS011;26250;45.422;11.100;2022-07-30T05:50:16;17.25;;;15.27;;
40555;SDS011;26250;45.422;11.100;2022-07-30T05:52:43;14.45;;;13.20;;
40555;SDS011;26250;45.422;11.100;2022-07-30T05:55:32;23.23;;;13.93;;
40555;SDS011;26250;45.422;11.100;2022-07-30T05:58:19;20.85;;;15.27;;
40555;SDS011;26250;45.422;11.100;2022-07-30T06:00:47;20.13;;;13.70;;
40555;SDS011;26250;45.422;11.100;2022-07-30T06:03:16;14.95;;;13.40;;
40555;SDS011;26250;45.422;11.100;2022-07-30T06:06:09;15.98;;;14.25;;
40555;SDS011;26250;45.422;11.100;2022-07-30T06:08:37;16.63;;;13.70;;
40555;SDS011;26250;45.422;11.100;2022-07-30T06:11:04;14.20;;;12.80;;
40555;SDS011;26250;45.422;11.100;2022-07-30T06:13:36;16.02;;;13.70;;
40555;SDS011;26250;45.422;11.100;2022-07-30T06:16:03;15.32;;;13.32;;
40555;SDS011;26250;45.422;11.100;2022-07-30T06:18:30;13.75;;;12.35;;
40555;SDS011;26250;45.422;11.100;2022-07-30T06:21:01;18.45;;;13.88;;
40555;SDS011;26250;45.422;11.100;2022-07-30T06:23:48;15.82;;;14.07;;
40555;SDS011;26250;45.422;11.100;2022-07-30T06:26:29;12.88;;;11.73;;
40555;SDS011;26250;45.422;11.100;2022-07-30T06:28:56;17.83;;;13.93;;
40555;SDS011;26250;45.422;11.100;2022-07-30T06:31:28;16.83;;;14.07;;
40555;SDS011;26250;45.422;11.100;2022-07-30T06:33:55;22.02;;;13.45;;
40555;SDS011;26250;45.422;11.100;2022-07-30T06:36:25;17.08;;;15.35;;
40555;SDS011;26250;45.422;11.100;2022-07-30T06:39:01;15.80;;;13.52;;
40555;SDS011;26250;45.422;11.100;2022-07-30T06:41:57;18.02;;;14.45;;
40555;SDS011;26250;45.422;11.100;2022-07-30T06:44:46;15.80;;;14.15;;
40555;SDS011;26250;45.422;11.100;2022-07-30T06:47:17;14.57;;;12.05;;
40555;SDS011;26250;45.422;11.100;2022-07-30T06:49:46;25.20;;;13.82;;
40555;SDS011;26250;45.422;11.100;2022-07-30T06:52:14;22.77;;;12.48;;
40555;SDS011;26250;45.422;11.100;2022-07-30T06:54:48;14.00;;;12.25;;
40555;SDS011;26250;45.422;11.100;2022-07-30T06:57:25;13.32;;;12.00;;
40555;SDS011;26250;45.422;11.100;2022-07-30T06:59:52;12.98;;;11.75;;
40555;SDS011;26250;45.422;11.100;2022-07-30T07:05:10;16.58;;;14.73;;
40555;SDS011;26250;45.422;11.100;2022-07-30T07:07:40;16.92;;;14.63;;
40555;SDS011;26250;45.422;11.100;2022-07-30T07:10:24;24.30;;;15.10;;
40555;SDS011;26250;45.422;11.100;2022-07-30T07:13:00;17.00;;;13.30;;
40555;SDS011;26250;45.422;11.100;2022-07-30T07:15:27;15.32;;;13.55;;
40555;SDS011;26250;45.422;11.100;2022-07-30T07:18:03;16.90;;;13.23;;
40555;SDS011;26250;45.422;11.100;2022-07-30T07:20:40;13.57;;;11.10;;
40555;SDS011;26250;45.422;11.100;2022-07-30T07:23:08;12.77;;;9.48;;
40555;SDS011;26250;45.422;11.100;2022-07-30T07:25:39;13.00;;;10.50;;
40555;SDS011;26250;45.422;11.100;2022-07-30T07:28:07;11.02;;;9.90;;
40555;SDS011;26250;45.422;11.100;2022-07-30T07:30:40;12.52;;;10.85;;
40555;SDS011;26250;45.422;11.100;2022-07-30T07:33:09;17.08;;;12.13;;
40555;SDS011;26250;45.422;11.100;2022-07-30T07:35:39;11.75;;;10.18;;
40555;SDS011;26250;45.422;11.100;2022-07-30T07:38:23;10.13;;;9.13;;
40555;SDS011;26250;45.422;11.100;2022-07-30T07:40:52;13.88;;;11.95;;
40555;SDS011;26250;45.422;11.100;2022-07-30T07:43:19;22.17;;;11.98;;
40555;SDS011;26250;45.422;11.100;2022-07-30T07:45:46;13.60;;;12.27;;
40555;SDS011;26250;45.422;11.100;2022-07-30T07:48:14;12.57;;;11.07;;
40555;SDS011;26250;45.422;11.100;2022-07-30T07:50:55;11.82;;;10.43;;
40555;SDS011;26250;45.422;11.100;2022-07-30T07:53:28;10.85;;;9.85;;
40555;SDS011;26250;45.422;11.100;2022-07-30T07:55:56;16.23;;;10.02;;
40555;SDS011;26250;45.422;11.100;2022-07-30T07:58:24;11.57;;;10.38;;
40555;SDS011;26250;45.422;11.100;2022-07-30T08:00:56;12.50;;;11.20;;
40555;SDS011;26250;45.422;11.100;2022-07-30T08:03:43;14.50;;;9.82;;
40555;SDS011;26250;45.422;11.100;2022-07-30T08:06:29;17.08;;;11.52;;
40555;SDS011;26250;45.422;11.100;2022-07-30T08:09:16;17.42;;;10.68;;
40555;SDS011;26250;45.422;11.100;2022-07-30T08:12:04;11.10;;;8.93;;
40555;SDS011;26250;45.422;11.100;2022-07-30T08:14:49;12.18;;;8.73;;
40555;SDS011;26250;45.422;11.100;2022-07-30T08:17:39;11.85;;;8.40;;
40555;SDS011;26250;45.422;11.100;2022-07-30T08:20:11;9.57;;;7.80;;
40555;SDS011;26250;45.422;11.100;2022-07-30T08:22:40;13.57;;;8.32;;
40555;SDS011;26250;45.422;11.100;2022-07-30T08:25:07;11.18;;;6.90;;
40555;SDS011;26250;45.422;11.100;2022-07-30T08:27:35;10.75;;;7.55;;
40555;SDS011;26250;45.422;11.100;2022-07-30T08:30:03;7.60;;;6.90;;
40555;SDS011;26250;45.422;11.100;2022-07-30T08:32:31;8.70;;;7.85;;
40555;SDS011;26250;45.422;11.100;2022-07-30T08:34:59;8.52;;;7.45;;
40555;SDS011;26250;45.422;11.100;2022-07-30T08:37:27;9.10;;;7.18;;
40555;SDS011;26250;45.422;11.100;2022-07-30T08:39:55;8.63;;;7.45;;
40555;SDS011;26250;45.422;11.100;2022-07-30T08:42:22;9.70;;;7.03;;
40555;SDS011;26250;45.422;11.100;2022-07-30T08:44:51;8.02;;;7.00;;
40555;SDS011;26250;45.422;11.100;2022-07-30T08:47:20;10.57;;;7.68;;
40555;SDS011;26250;45.422;11.100;2022-07-30T08:50:18;16.05;;;6.80;;
40555;SDS011;26250;45.422;11.100;2022-07-30T08:53:03;7.07;;;5.75;;
40555;SDS011;26250;45.422;11.100;2022-07-30T08:55:31;9.27;;;6.57;;
40555;SDS011;26250;45.422;11.100;2022-07-30T08:57:58;22.10;;;8.63;;
40555;SDS011;26250;45.422;11.100;2022-07-30T09:00:25;7.68;;;6.97;;
40555;SDS011;26250;45.422;11.100;2022-07-30T09:02:53;7.85;;;7.05;;
40555;SDS011;26250;45.422;11.100;2022-07-30T09:05:23;18.25;;;7.93;;
40555;SDS011;26250;45.422;11.100;2022-07-30T09:07:50;7.13;;;6.53;;
40555;SDS011;26250;45.422;11.100;2022-07-30T09:10:26;7.60;;;5.97;;
40555;SDS011;26250;45.422;11.100;2022-07-30T09:12:53;9.75;;;7.85;;
40555;SDS011;26250;45.422;11.100;2022-07-30T09:15:20;9.00;;;7.93;;
40555;SDS011;26250;45.422;11.100;2022-07-30T09:17:50;8.95;;;7.45;;
40555;SDS011;26250;45.422;11.100;2022-07-30T09:20:33;15.52;;;8.45;;
40555;SDS011;26250;45.422;11.100;2022-07-30T09:23:05;11.45;;;9.23;;
40555;SDS011;26250;45.422;11.100;2022-07-30T09:28:27;8.57;;;7.70;;
40555;SDS011;26250;45.422;11.100;2022-07-30T09:31:14;9.38;;;6.72;;
40555;SDS011;26250;45.422;11.100;2022-07-30T09:34:21;12.35;;;7.50;;
40555;SDS011;26250;45.422;11.100;2022-07-30T09:40:13;9.27;;;7.38;;
40555;SDS011;26250;45.422;11.100;2022-07-30T09:43:10;8.15;;;6.32;;
40555;SDS011;26250;45.422;11.100;2022-07-30T09:45:49;7.32;;;5.88;;
40555;SDS011;26250;45.422;11.100;2022-07-30T09:48:24;8.57;;;6.63;;
40555;SDS011;26250;45.422;11.100;2022-07-30T09:50:53;7.40;;;6.38;;
40555;SDS011;26250;45.422;11.100;2022-07-30T09:53:23;6.07;;;5.47;;
40555;SDS011;26250;45.422;11.100;2022-07-30T09:55:50;7.40;;;5.97;;
40555;SDS011;26250;45.422;11.100;2022-07-30T09:58:18;7.28;;;5.22;;
40555;SDS011;26250;45.422;11.100;2022-07-30T10:00:56;5.30;;;4.80;;
40555;SDS011;26250;45.422;11.100;2022-07-30T10:03:46;6.88;;;5.60;;
40555;SDS011;26250;45.422;11.100;2022-07-30T10:06:33;7.90;;;5.80;;
40555;SDS011;26250;45.422;11.100;2022-07-30T10:09:30;10.10;;;5.82;;
40555;SDS011;26250;45.422;11.100;2022-07-30T10:12:03;12.25;;;6.30;;
40555;SDS011;26250;45.422;11.100;2022-07-30T10:14:36;7.88;;;7.07;;
40555;SDS011;26250;45.422;11.100;2022-07-30T10:17:10;9.05;;;6.97;;
40555;SDS011;26250;45.422;11.100;2022-07-30T10:19:40;6.10;;;5.40;;
40555;SDS011;26250;45.422;11.100;2022-07-30T10:22:26;7.43;;;5.47;;
40555;SDS011;26250;45.422;11.100;2022-07-30T10:25:12;12.60;;;5.00;;
40555;SDS011;26250;45.422;11.100;2022-07-30T10:28:16;8.13;;;5.80;;
40555;SDS011;26250;45.422;11.100;2022-07-30T10:30:43;5.93;;;5.32;;
40555;SDS011;26250;45.422;11.100;2022-07-30T10:33:10;8.07;;;5.75;;
40555;SDS011;26250;45.422;11.100;2022-07-30T10:35:58;9.57;;;6.18;;
40555;SDS011;26250;45.422;11.100;2022-07-30T10:38:29;7.00;;;6.30;;
40555;SDS011;26250;45.422;11.100;2022-07-30T10:41:07;6.70;;;5.03;;
40555;SDS011;26250;45.422;11.100;2022-07-30T10:46:56;12.23;;;6.10;;
40555;SDS011;26250;45.422;11.100;2022-07-30T10:49:33;7.18;;;6.30;;
40555;SDS011;26250;45.422;11.100;2022-07-30T10:52:08;11.15;;;6.47;;
40555;SDS011;26250;45.422;11.100;2022-07-30T10:54:36;11.10;;;6.63;;
40555;SDS011;26250;45.422;11.100;2022-07-30T11:02:16;8.48;;;7.13;;
40555;SDS011;26250;45.422;11.100;2022-07-30T11:04:45;7.03;;;6.32;;
40555;SDS011;26250;45.422;11.100;2022-07-30T11:09:53;10.15;;;6.97;;
40555;SDS011;26250;45.422;11.100;2022-07-30T11:15:18;4.50;;;3.67;;
40555;SDS011;26250;45.422;11.100;2022-07-30T11:17:56;4.20;;;3.88;;
40555;SDS011;26250;45.422;11.100;2022-07-30T11:20:26;8.93;;;3.95;;
40555;SDS011;26250;45.422;11.100;2022-07-30T11:23:07;8.13;;;4.15;;
40555;SDS011;26250;45.422;11.100;2022-07-30T11:25:40;4.65;;;4.05;;
40555;SDS011;26250;45.422;11.100;2022-07-30T11:31:32;4.63;;;4.22;;
40555;SDS011;26250;45.422;11.100;2022-07-30T11:34:24;5.78;;;4.15;;
40555;SDS011;26250;45.422;11.100;2022-07-30T11:47:47;4.90;;;3.75;;
40555;SDS011;26250;45.422;11.100;2022-07-30T11:52:47;3.47;;;3.17;;
40555;SDS011;26250;45.422;11.100;2022-07-30T11:55:28;4.40;;;2.63;;
40555;SDS011;26250;45.422;11.100;2022-07-30T11:57:56;3.70;;;2.60;;
40555;SDS011;26250;45.422;11.100;2022-07-30T12:00:24;10.18;;;3.13;;
40555;SDS011;26250;45.422;11.100;2022-07-30T12:02:52;4.40;;;2.72;;
40555;SDS011;26250;45.422;11.100;2022-07-30T12:05:23;5.78;;;3.13;;
40555;SDS011;26250;45.422;11.100;2022-07-30T12:07:57;3.47;;;2.90;;
40555;SDS011;26250;45.422;11.100;2022-07-30T12:10:25;3.83;;;2.60;;
40555;SDS011;26250;45.422;11.100;2022-07-30T12:12:56;3.30;;;2.80;;
40555;SDS011;26250;45.422;11.100;2022-07-30T12:15:42;7.55;;;2.70;;
40555;SDS011;26250;45.422;11.100;2022-07-30T12:18:10;3.25;;;2.70;;
40555;SDS011;26250;45.422;11.100;2022-07-30T12:23:26;7.95;;;2.35;;
40555;SDS011;26250;45.422;11.100;2022-07-30T12:25:54;11.25;;;2.10;;
40555;SDS011;26250;45.422;11.100;2022-07-30T12:28:24;3.28;;;2.58;;
40555;SDS011;26250;45.422;11.100;2022-07-30T12:30:56;2.75;;;2.25;;
40555;SDS011;26250;45.422;11.100;2022-07-30T12:33:24;3.38;;;2.38;;
40555;SDS011;26250;45.422;11.100;2022-07-30T12:35:52;3.38;;;2.40;;
40555;SDS011;26250;45.422;11.100;2022-07-30T12:38:21;5.18;;;2.47;;
40555;SDS011;26250;45.422;11.100;2022-07-30T12:46:23;3.20;;;2.00;;
40555;SDS011;26250;45.422;11.100;2022-07-30T12:48:58;2.20;;;2.00;;
40555;SDS011;26250;45.422;11.100;2022-07-30T12:51:51;3.00;;;2.00;;
40555;SDS011;26250;45.422;11.100;2022-07-30T12:54:26;1.98;;;1.85;;
40555;SDS011;26250;45.422;11.100;2022-07-30T12:56:57;7.72;;;2.30;;
40555;SDS011;26250;45.422;11.100;2022-07-30T12:59:31;2.60;;;1.90;;
40555;SDS011;26250;45.422;11.100;2022-07-30T13:01:59;3.67;;;1.88;;
40555;SDS011;26250;45.422;11.100;2022-07-30T13:04:26;2.90;;;1.58;;
40555;SDS011;26250;45.422;11.100;2022-07-30T13:07:07;2.42;;;1.77;;
40555;SDS011;26250;45.422;11.100;2022-07-30T13:09:36;3.38;;;1.60;;
40555;SDS011;26250;45.422;11.100;2022-07-30T13:12:04;2.33;;;1.35;;
40555;SDS011;26250;45.422;11.100;2022-07-30T13:14:31;4.07;;;1.98;;
40555;SDS011;26250;45.422;11.100;2022-07-30T13:16:58;1.50;;;1.27;;
40555;SDS011;26250;45.422;11.100;2022-07-30T13:19:26;1.88;;;1.27;;
40555;SDS011;26250;45.422;11.100;2022-07-30T13:21:54;2.60;;;1.33;;
40555;SDS011;26250;45.422;11.100;2022-07-30T13:24:20;1.85;;;1.17;;
40555;SDS011;26250;45.422;11.100;2022-07-30T13:26:47;5.65;;;1.20;;
40555;SDS011;26250;45.422;11.100;2022-07-30T13:29:16;2.40;;;1.30;;
40555;SDS011;26250;45.422;11.100;2022-07-30T13:31:43;1.55;;;0.88;;
40555;SDS011;26250;45.422;11.100;2022-07-30T13:34:10;1.65;;;1.00;;
40555;SDS011;26250;45.422;11.100;2022-07-30T13:36:37;0.85;;;0.70;;
40555;SDS011;26250;45.422;11.100;2022-07-30T13:39:04;1.10;;;0.88;;
40555;SDS011;26250;45.422;11.100;2022-07-30T13:41:32;6.15;;;1.35;;
40555;SDS011;26250;45.422;11.100;2022-07-30T13:44:01;2.70;;;0.98;;
40555;SDS011;26250;45.422;11.100;2022-07-30T13:46:29;1.42;;;1.20;;
40555;SDS011;26250;45.422;11.100;2022-07-30T13:48:56;5.30;;;1.83;;
40555;SDS011;26250;45.422;11.100;2022-07-30T13:51:23;3.13;;;2.22;;
40555;SDS011;26250;45.422;11.100;2022-07-30T13:53:50;16.15;;;2.60;;
40555;SDS011;26250;45.422;11.100;2022-07-30T13:56:17;3.13;;;2.30;;
40555;SDS011;26250;45.422;11.100;2022-07-30T13:58:45;3.10;;;2.47;;
40555;SDS011;26250;45.422;11.100;2022-07-30T14:01:13;5.93;;;2.30;;
40555;SDS011;26250;45.422;11.100;2022-07-30T14:03:43;2.63;;;1.95;;
40555;SDS011;26250;45.422;11.100;2022-07-30T14:06:15;5.57;;;2.50;;
40555;SDS011;26250;45.422;11.100;2022-07-30T14:08:42;3.28;;;2.58;;
40555;SDS011;26250;45.422;11.100;2022-07-30T14:11:09;3.13;;;2.78;;
40555;SDS011;26250;45.422;11.100;2022-07-30T14:13:36;3.85;;;3.38;;
40555;SDS011;26250;45.422;11.100;2022-07-30T14:16:03;4.85;;;2.80;;
40555;SDS011;26250;45.422;11.100;2022-07-30T14:18:48;3.80;;;3.17;;
40555;SDS011;26250;45.422;11.100;2022-07-30T14:21:15;4.00;;;3.47;;
40555;SDS011;26250;45.422;11.100;2022-07-30T14:23:42;3.58;;;2.40;;
40555;SDS011;26250;45.422;11.100;2022-07-30T14:26:08;3.58;;;1.98;;
40555;SDS011;26250;45.422;11.100;2022-07-30T14:28:35;5.80;;;2.72;;
40555;SDS011;26250;45.422;11.100;2022-07-30T14:31:02;4.38;;;2.40;;
40555;SDS011;26250;45.422;11.100;2022-07-30T14:33:30;10.13;;;2.47;;
40555;SDS011;26250;45.422;11.100;2022-07-30T14:35:57;3.13;;;2.40;;
40555;SDS011;26250;45.422;11.100;2022-07-30T14:38:24;1.75;;;1.52;;
40555;SDS011;26250;45.422;11.100;2022-07-30T14:40:51;4.45;;;1.92;;
40555;SDS011;26250;45.422;11.100;2022-07-30T14:43:18;2.75;;;1.60;;
40555;SDS011;26250;45.422;11.100;2022-07-30T14:45:45;2.40;;;2.08;;
40555;SDS011;26250;45.422;11.100;2022-07-30T14:48:16;4.18;;;1.92;;
40555;SDS011;26250;45.422;11.100;2022-07-30T14:50:42;3.33;;;1.73;;
40555;SDS011;26250;45.422;11.100;2022-07-30T14:53:29;1.90;;;1.42;;
40555;SDS011;26250;45.422;11.100;2022-07-30T14:55:56;7.85;;;1.52;;
40555;SDS011;26250;45.422;11.100;2022-07-30T14:58:23;1.40;;;1.30;;
40555;SDS011;26250;45.422;11.100;2022-07-30T15:00:51;1.73;;;1.45;;
40555;SDS011;26250;45.422;11.100;2022-07-30T15:03:18;2.78;;;1.73;;
40555;SDS011;26250;45.422;11.100;2022-07-30T15:05:48;3.05;;;1.13;;
40555;SDS011;26250;45.422;11.100;2022-07-30T15:08:17;1.10;;;1.00;;
40555;SDS011;26250;45.422;11.100;2022-07-30T15:10:44;6.80;;;1.23;;
40555;SDS011;26250;45.422;11.100;2022-07-30T15:13:11;1.90;;;1.60;;
40555;SDS011;26250;45.422;11.100;2022-07-30T15:15:40;3.45;;;1.10;;
40555;SDS011;26250;45.422;11.100;2022-07-30T15:18:10;2.35;;;1.15;;
40555;SDS011;26250;45.422;11.100;2022-07-30T15:20:37;4.53;;;1.17;;
40555;SDS011;26250;45.422;11.100;2022-07-30T15:23:04;4.45;;;1.30;;
40555;SDS011;26250;45.422;11.100;2022-07-30T15:25:36;2.58;;;1.40;;
40555;SDS011;26250;45.422;11.100;2022-07-30T15:28:03;1.75;;;1.40;;
40555;SDS011;26250;45.422;11.100;2022-07-30T15:30:30;3.78;;;1.15;;
40555;SDS011;26250;45.422;11.100;2022-07-30T15:32:57;2.53;;;1.35;;
40555;SDS011;26250;45.422;11.100;2022-07-30T15:35:24;1.67;;;1.52;;
40555;SDS011;26250;45.422;11.100;2022-07-30T15:37:51;1.77;;;1.00;;
40555;SDS011;26250;45.422;11.100;2022-07-30T15:40:18;3.78;;;1.38;;
40555;SDS011;26250;45.422;11.100;2022-07-30T15:42:45;3.78;;;1.58;;
40555;SDS011;26250;45.422;11.100;2022-07-30T15:45:12;1.35;;;1.02;;
40555;SDS011;26250;45.422;11.100;2022-07-30T15:47:43;1.02;;;0.90;;
40555;SDS011;26250;45.422;11.100;2022-07-30T15:50:10;2.08;;;1.70;;